aviador You're here:

KILM Decoded Metar

WILMINGTON in NC, USA
Report Time2017-09-25 23:53:00
UTC Time2017-09-26 00:03:41
Flight Rules mvfr MVFR
Wind350° at 09 kt
W.Decomp.*RWY 35: 8.9 kt HW 1.1 kt RCW
RWY 06: 4.1 kt HW 8 kt LCW
W.Rank350° ranks 15
Current wind is above 350° avg. (7.1)
Visibility9999 m
Phenomena:N/A
Clouds:Overcast 024 Hf
Expected CloudBase > 1,200 ft AGL from Temp-Dew spread
Ceiling2,400 ft
Temp25°C (ISA +10)
Dew Point22°C (83% RH)
QNH1011 hPa
Density Alt1,611 ft
Elevation30 ft
Report Wrong Elevation
Raw Report
METAR KILM 252353Z 35009KT 10SM OVC024 25/22 A2985 RMK AO2 SLP107 T02500217
10278 20250 57003=

Extra information for KILM:More info

Metar Taf Metar & Taf Last 4 Metars F.Rules Stats Wind Profile Meteogram Temp Stats Airport Information Weather charts Add Link Nearby VenuesMetar ALERT Operation Metar Decoded Social comments

AIRNAV info for KILM